Aérodrome :
LOGIN :

S'inscrire | Disclaimer

   EN    FR    IT 

 










Légende :    VFR   VFR Marginal   IFR   IFR Intensif   IFR Très Intensif
Visi : 
Plafond : 
>= 8 km
>= 3000ft
5 à 8 km
1000 à 3000 ft
1500m à 5 km
500 à 1000 ft
800 à 1500m
200 à 500 ft
< 800m
< 200 ft
Symboles :   Orages  Brouillard  Fortes neiges  Fortes précipitations  Vent > 20 kt
SIGMETs :   Divers  Orages  Givrage  Turbulence  Onde Orograph.  Cendres Volcan.






- Altitude de l'aérodrome : 526 ft
- Code IATA : LTN


EGGW - London Luton

DERNIER METAR :
  • 031920Z AUTO 02012KT 9999 SCT022 SCT032 BKN043 13/09 Q1008

METARs EXPIRÉS :
  • 031850Z AUTO 03013KT 9999 SCT022 BKN028 13/09 Q1008
  • 031820Z AUTO 03012KT 9999 SCT022 14/09 Q1008
  • 031750Z AUTO 03013KT 9999 FEW024 14/09 Q1008
  • 031720Z AUTO 03012KT 350V050 9999 FEW020 SCT026 14/09 Q1008
  • 031650Z AUTO 03014KT 9999 SCT021 14/09 Q1008

TAF TAF EGGW
Valide du 03 à 18h jusqu'au 04 à 18h UTC


031707Z 0318/0418 02012KT 9999 FEW018 SCT035
BECMG 0318/0321 BKN010
TEMPO 0318/0406 6000 RA BKN006
BECMG 0406/0409 SCT030
PROB30
TEMPO 0415/0418 7000 SHRA
ATIS : +44 1582 395 204



MET'MAP, la Météo Aéronautique d'un coup d'oeil ! - Copyright ORBIFLY Décembre 2007 - Disclaimer

ORBIFLY MET'MAP TEAM :

Programmation & Développement : Alexandra Zaïnal
Sur une idée originale de : Baudouin d'Aumeries
Assistance à la programmation : Marc-Olivier Méhu
Soutien technique & logistique : Manuel Goepfert

Contact : metmap@orbifly.com




SOURCES & CREDITS :

   NOAA